Meath Environmental Platform

Observations for Trim Market St

Time AQI Temp °C Hum % Pres Pa CO μg/m³ H₂S μg/m³ NO μg/m³ NO₂ μg/m³ O₃ μg/m³ SO₂ μg/m³ PM1 μg/m³ PM2.5 μg/m³ PM10 μg/m³
Thursday 9 July 2026
13:22 1 38.6 31 66,833 1.39 0 0 14.95 0 0 0 2.73 3
13:18 1 37.7 32 66,698 0.41 0 0 0 0 0.96 0 2.66 2.93
13:17 1 37.5 33 66,649 0.42 0 0 0 0.87 0 0 2.64 2.91
13:16 1 37.2 33 66,614 0.43 0 0 0 12.99 0 0 3.17 3.49
13:15 1 36.9 33 66,598 0.35 0 0 0 0 0 0 3.19 3.5
13:14 1 36.7 34 66,552 0.37 0 0 0 0 0 0 3.15 3.47
13:13 1 36.4 34 66,531 0.3 0 0 0 5.41 0 0 2.59 2.85
13:12 1 36.1 34 66,474 0.28 0 0 0 9.65 0 0 2.59 2.85
13:11 1 35.7 34 66,425 0.23 0 0 0 0.78 0 0 3.12 3.43
13:10 1 35.4 35 66,398 0.17 0 0 0 9.74 0 0.71 3.09 3.4
13:09 1 35.1 35 66,343 0.44 0 0 0 0 0 0 2.56 2.81
13:08 1 34.7 36 66,303 0.45 0 0 0 0 0 0 2.52 2.78
13:07 1 34.4 36 66,260 0.22 0 0 0 0 0 0 2.51 2.77
13:06 1 34.1 36 66,204 0.11 0 0 0 7.4 0 0 2.51 2.76
13:05 1 33.8 37 66,161 0.07 0 0 0 0 0 0 3.01 3.31
13:02 1 33.1 38 66,108 0.03 0 0 0 0 0 0.71 2.95 3.24
12:59 1 32.3 40 65,949 0.16 0 0 1.83 2.61 0 0 2.89 3.18
12:56 1 31.9 40 65,817 0.1 0 0 0 0 0 0 2.35 2.59
12:52 1 31.1 42 65,398 0 0 0 2.97 7.21 0 0 2.26 2.48
12:46 1 29.6 43 64,843 0 0 0 0 1.28 0 0 2.74 3.01